sensor_id;sensor_type;location;lat;lon;timestamp;P1;durP1;ratioP1;P2;durP2;ratioP2
15246;SDS011;7726;48.820;9.248;2022-10-15T00:02:17;1.65;;;0.77;;
15246;SDS011;7726;48.820;9.248;2022-10-15T00:04:44;0.60;;;0.60;;
15246;SDS011;7726;48.820;9.248;2022-10-15T00:07:13;0.80;;;0.80;;
15246;SDS011;7726;48.820;9.248;2022-10-15T00:09:40;0.47;;;0.47;;
15246;SDS011;7726;48.820;9.248;2022-10-15T00:12:07;1.05;;;0.73;;
15246;SDS011;7726;48.820;9.248;2022-10-15T00:14:34;2.15;;;0.80;;
15246;SDS011;7726;48.820;9.248;2022-10-15T00:17:01;1.80;;;0.70;;
15246;SDS011;7726;48.820;9.248;2022-10-15T00:19:29;0.95;;;0.82;;
15246;SDS011;7726;48.820;9.248;2022-10-15T00:21:56;0.80;;;0.70;;
15246;SDS011;7726;48.820;9.248;2022-10-15T00:24:24;1.08;;;0.60;;
15246;SDS011;7726;48.820;9.248;2022-10-15T00:26:51;1.02;;;0.77;;
15246;SDS011;7726;48.820;9.248;2022-10-15T00:29:18;0.82;;;0.65;;
15246;SDS011;7726;48.820;9.248;2022-10-15T00:31:45;0.70;;;0.70;;
15246;SDS011;7726;48.820;9.248;2022-10-15T00:34:12;0.90;;;0.75;;
15246;SDS011;7726;48.820;9.248;2022-10-15T00:36:39;2.35;;;0.70;;
15246;SDS011;7726;48.820;9.248;2022-10-15T00:39:06;1.30;;;1.00;;
15246;SDS011;7726;48.820;9.248;2022-10-15T00:41:36;0.80;;;0.50;;
15246;SDS011;7726;48.820;9.248;2022-10-15T00:46:45;0.88;;;0.88;;
15246;SDS011;7726;48.820;9.248;2022-10-15T00:49:15;0.70;;;0.70;;
15246;SDS011;7726;48.820;9.248;2022-10-15T00:51:44;1.88;;;0.80;;
15246;SDS011;7726;48.820;9.248;2022-10-15T00:54:12;0.88;;;0.63;;
15246;SDS011;7726;48.820;9.248;2022-10-15T00:56:42;0.80;;;0.70;;
15246;SDS011;7726;48.820;9.248;2022-10-15T00:59:11;1.02;;;0.50;;
15246;SDS011;7726;48.820;9.248;2022-10-15T01:01:38;2.05;;;0.68;;
15246;SDS011;7726;48.820;9.248;2022-10-15T01:04:06;0.73;;;0.63;;
15246;SDS011;7726;48.820;9.248;2022-10-15T01:06:33;0.88;;;0.50;;
15246;SDS011;7726;48.820;9.248;2022-10-15T01:09:00;0.75;;;0.52;;
15246;SDS011;7726;48.820;9.248;2022-10-15T01:11:32;1.02;;;0.55;;
15246;SDS011;7726;48.820;9.248;2022-10-15T01:14:08;0.57;;;0.52;;
15246;SDS011;7726;48.820;9.248;2022-10-15T01:16:38;2.35;;;0.60;;
15246;SDS011;7726;48.820;9.248;2022-10-15T01:19:10;0.28;;;0.28;;
15246;SDS011;7726;48.820;9.248;2022-10-15T01:21:45;0.60;;;0.60;;
15246;SDS011;7726;48.820;9.248;2022-10-15T01:27:04;0.22;;;0.22;;
15246;SDS011;7726;48.820;9.248;2022-10-15T01:29:55;1.02;;;0.38;;
15246;SDS011;7726;48.820;9.248;2022-10-15T01:32:26;0.65;;;0.45;;
15246;SDS011;7726;48.820;9.248;2022-10-15T01:34:55;2.38;;;0.70;;
15246;SDS011;7726;48.820;9.248;2022-10-15T01:37:26;2.13;;;0.25;;
15246;SDS011;7726;48.820;9.248;2022-10-15T01:39:57;1.05;;;0.30;;
15246;SDS011;7726;48.820;9.248;2022-10-15T01:42:26;0.25;;;0.25;;
15246;SDS011;7726;48.820;9.248;2022-10-15T01:44:56;2.13;;;0.40;;
15246;SDS011;7726;48.820;9.248;2022-10-15T01:47:27;1.35;;;0.65;;
15246;SDS011;7726;48.820;9.248;2022-10-15T01:49:56;1.55;;;0.40;;
15246;SDS011;7726;48.820;9.248;2022-10-15T01:52:26;0.68;;;0.32;;
15246;SDS011;7726;48.820;9.248;2022-10-15T01:54:55;1.38;;;0.20;;
15246;SDS011;7726;48.820;9.248;2022-10-15T01:57:22;0.20;;;0.20;;
15246;SDS011;7726;48.820;9.248;2022-10-15T01:59:51;0.93;;;0.40;;
15246;SDS011;7726;48.820;9.248;2022-10-15T02:02:19;1.52;;;0.30;;
15246;SDS011;7726;48.820;9.248;2022-10-15T02:04:47;1.55;;;0.30;;
15246;SDS011;7726;48.820;9.248;2022-10-15T02:07:14;0.43;;;0.43;;
15246;SDS011;7726;48.820;9.248;2022-10-15T02:09:44;0.82;;;0.52;;
15246;SDS011;7726;48.820;9.248;2022-10-15T02:12:19;0.75;;;0.55;;
15246;SDS011;7726;48.820;9.248;2022-10-15T02:14:52;1.30;;;0.47;;
15246;SDS011;7726;48.820;9.248;2022-10-15T02:17:26;0.43;;;0.40;;
15246;SDS011;7726;48.820;9.248;2022-10-15T02:19:58;1.65;;;0.50;;
15246;SDS011;7726;48.820;9.248;2022-10-15T02:22:27;0.57;;;0.40;;
15246;SDS011;7726;48.820;9.248;2022-10-15T02:24:57;2.22;;;1.30;;
15246;SDS011;7726;48.820;9.248;2022-10-15T02:27:25;1.48;;;0.90;;
15246;SDS011;7726;48.820;9.248;2022-10-15T02:29:53;0.95;;;0.70;;
15246;SDS011;7726;48.820;9.248;2022-10-15T02:32:24;1.88;;;1.20;;
15246;SDS011;7726;48.820;9.248;2022-10-15T02:34:51;2.88;;;0.70;;
15246;SDS011;7726;48.820;9.248;2022-10-15T02:37:21;0.55;;;0.52;;
15246;SDS011;7726;48.820;9.248;2022-10-15T02:39:50;0.68;;;0.40;;
15246;SDS011;7726;48.820;9.248;2022-10-15T02:42:17;0.90;;;0.63;;
15246;SDS011;7726;48.820;9.248;2022-10-15T02:44:44;0.50;;;0.40;;
15246;SDS011;7726;48.820;9.248;2022-10-15T02:47:11;1.75;;;0.70;;
15246;SDS011;7726;48.820;9.248;2022-10-15T02:49:38;5.47;;;0.50;;
15246;SDS011;7726;48.820;9.248;2022-10-15T02:52:06;0.88;;;0.40;;
15246;SDS011;7726;48.820;9.248;2022-10-15T02:54:34;0.43;;;0.40;;
15246;SDS011;7726;48.820;9.248;2022-10-15T02:57:01;0.30;;;0.30;;
15246;SDS011;7726;48.820;9.248;2022-10-15T02:59:28;1.10;;;0.38;;
15246;SDS011;7726;48.820;9.248;2022-10-15T03:01:55;1.30;;;0.43;;
15246;SDS011;7726;48.820;9.248;2022-10-15T03:04:22;0.82;;;0.30;;
15246;SDS011;7726;48.820;9.248;2022-10-15T03:06:49;0.20;;;0.20;;
15246;SDS011;7726;48.820;9.248;2022-10-15T03:09:17;0.43;;;0.20;;
15246;SDS011;7726;48.820;9.248;2022-10-15T03:11:45;2.20;;;0.40;;
15246;SDS011;7726;48.820;9.248;2022-10-15T03:14:12;1.85;;;0.40;;
15246;SDS011;7726;48.820;9.248;2022-10-15T03:16:39;0.60;;;0.60;;
15246;SDS011;7726;48.820;9.248;2022-10-15T03:19:06;0.20;;;0.20;;
15246;SDS011;7726;48.820;9.248;2022-10-15T03:21:34;0.35;;;0.35;;
15246;SDS011;7726;48.820;9.248;2022-10-15T03:24:01;0.98;;;0.40;;
15246;SDS011;7726;48.820;9.248;2022-10-15T03:26:28;0.63;;;0.30;;
15246;SDS011;7726;48.820;9.248;2022-10-15T03:28:56;1.35;;;0.20;;
15246;SDS011;7726;48.820;9.248;2022-10-15T03:31:23;0.45;;;0.38;;
15246;SDS011;7726;48.820;9.248;2022-10-15T03:33:50;1.75;;;0.30;;
15246;SDS011;7726;48.820;9.248;2022-10-15T03:36:17;1.65;;;0.20;;
15246;SDS011;7726;48.820;9.248;2022-10-15T03:38:44;0.10;;;0.10;;
15246;SDS011;7726;48.820;9.248;2022-10-15T03:41:11;1.23;;;0.65;;
15246;SDS011;7726;48.820;9.248;2022-10-15T03:43:39;0.82;;;0.22;;
15246;SDS011;7726;48.820;9.248;2022-10-15T03:46:07;0.85;;;0.47;;
15246;SDS011;7726;48.820;9.248;2022-10-15T03:48:34;1.15;;;0.52;;
15246;SDS011;7726;48.820;9.248;2022-10-15T03:51:01;2.03;;;0.43;;
15246;SDS011;7726;48.820;9.248;2022-10-15T03:53:28;0.57;;;0.40;;
15246;SDS011;7726;48.820;9.248;2022-10-15T03:56:01;1.48;;;0.50;;
15246;SDS011;7726;48.820;9.248;2022-10-15T03:58:28;0.40;;;0.40;;
15246;SDS011;7726;48.820;9.248;2022-10-15T04:00:55;1.60;;;0.50;;
15246;SDS011;7726;48.820;9.248;2022-10-15T04:03:23;0.40;;;0.40;;
15246;SDS011;7726;48.820;9.248;2022-10-15T04:05:50;1.05;;;0.93;;
15246;SDS011;7726;48.820;9.248;2022-10-15T04:08:18;2.63;;;0.40;;
15246;SDS011;7726;48.820;9.248;2022-10-15T04:10:45;1.52;;;0.40;;
15246;SDS011;7726;48.820;9.248;2022-10-15T04:13:12;4.30;;;0.50;;
15246;SDS011;7726;48.820;9.248;2022-10-15T04:15:39;2.15;;;0.43;;
15246;SDS011;7726;48.820;9.248;2022-10-15T04:18:06;0.50;;;0.30;;
15246;SDS011;7726;48.820;9.248;2022-10-15T04:20:35;0.63;;;0.40;;
15246;SDS011;7726;48.820;9.248;2022-10-15T04:23:02;0.85;;;0.28;;
15246;SDS011;7726;48.820;9.248;2022-10-15T04:25:29;0.70;;;0.40;;
15246;SDS011;7726;48.820;9.248;2022-10-15T04:27:56;4.60;;;0.38;;
15246;SDS011;7726;48.820;9.248;2022-10-15T04:30:23;1.20;;;0.40;;
15246;SDS011;7726;48.820;9.248;2022-10-15T04:32:50;1.95;;;0.60;;
15246;SDS011;7726;48.820;9.248;2022-10-15T04:35:17;1.75;;;0.30;;
15246;SDS011;7726;48.820;9.248;2022-10-15T04:37:46;0.70;;;0.30;;
15246;SDS011;7726;48.820;9.248;2022-10-15T04:40:13;0.57;;;0.57;;
15246;SDS011;7726;48.820;9.248;2022-10-15T04:42:41;0.30;;;0.22;;
15246;SDS011;7726;48.820;9.248;2022-10-15T04:45:08;0.77;;;0.57;;
15246;SDS011;7726;48.820;9.248;2022-10-15T04:47:35;0.40;;;0.40;;
15246;SDS011;7726;48.820;9.248;2022-10-15T04:50:02;1.38;;;0.55;;
15246;SDS011;7726;48.820;9.248;2022-10-15T04:52:29;0.73;;;0.47;;
15246;SDS011;7726;48.820;9.248;2022-10-15T04:54:58;1.00;;;0.40;;
15246;SDS011;7726;48.820;9.248;2022-10-15T04:57:27;1.58;;;0.50;;
15246;SDS011;7726;48.820;9.248;2022-10-15T04:59:54;0.65;;;0.60;;
15246;SDS011;7726;48.820;9.248;2022-10-15T05:02:21;0.63;;;0.50;;
15246;SDS011;7726;48.820;9.248;2022-10-15T05:04:48;1.85;;;0.40;;
15246;SDS011;7726;48.820;9.248;2022-10-15T05:07:15;1.75;;;0.50;;
15246;SDS011;7726;48.820;9.248;2022-10-15T05:09:42;3.30;;;0.60;;
15246;SDS011;7726;48.820;9.248;2022-10-15T05:12:10;1.52;;;0.73;;
15246;SDS011;7726;48.820;9.248;2022-10-15T05:14:37;0.52;;;0.52;;
15246;SDS011;7726;48.820;9.248;2022-10-15T05:17:05;0.52;;;0.52;;
15246;SDS011;7726;48.820;9.248;2022-10-15T05:19:33;0.47;;;0.47;;
15246;SDS011;7726;48.820;9.248;2022-10-15T05:22:00;0.40;;;0.40;;
15246;SDS011;7726;48.820;9.248;2022-10-15T05:24:27;2.42;;;0.60;;
15246;SDS011;7726;48.820;9.248;2022-10-15T05:26:54;1.13;;;0.50;;
15246;SDS011;7726;48.820;9.248;2022-10-15T05:29:22;0.68;;;0.65;;
15246;SDS011;7726;48.820;9.248;2022-10-15T05:31:49;0.60;;;0.60;;
15246;SDS011;7726;48.820;9.248;2022-10-15T05:34:17;0.52;;;0.35;;
15246;SDS011;7726;48.820;9.248;2022-10-15T05:36:44;1.55;;;1.05;;
15246;SDS011;7726;48.820;9.248;2022-10-15T05:39:11;0.50;;;0.50;;
15246;SDS011;7726;48.820;9.248;2022-10-15T05:41:38;0.40;;;0.40;;
15246;SDS011;7726;48.820;9.248;2022-10-15T05:44:05;0.93;;;0.40;;
15246;SDS011;7726;48.820;9.248;2022-10-15T05:46:34;2.22;;;0.73;;
15246;SDS011;7726;48.820;9.248;2022-10-15T05:49:01;1.02;;;0.45;;
15246;SDS011;7726;48.820;9.248;2022-10-15T05:51:28;0.77;;;0.77;;
15246;SDS011;7726;48.820;9.248;2022-10-15T05:53:55;2.67;;;0.90;;
15246;SDS011;7726;48.820;9.248;2022-10-15T05:56:23;1.17;;;0.60;;
15246;SDS011;7726;48.820;9.248;2022-10-15T05:58:50;0.77;;;0.70;;
15246;SDS011;7726;48.820;9.248;2022-10-15T06:01:18;2.55;;;0.60;;
15246;SDS011;7726;48.820;9.248;2022-10-15T06:03:46;0.80;;;0.70;;
15246;SDS011;7726;48.820;9.248;2022-10-15T06:06:14;1.50;;;0.52;;
15246;SDS011;7726;48.820;9.248;2022-10-15T06:08:41;0.93;;;0.90;;
15246;SDS011;7726;48.820;9.248;2022-10-15T06:11:08;0.68;;;0.60;;
15246;SDS011;7726;48.820;9.248;2022-10-15T06:13:36;3.28;;;0.93;;
15246;SDS011;7726;48.820;9.248;2022-10-15T06:16:04;1.85;;;0.80;;
15246;SDS011;7726;48.820;9.248;2022-10-15T06:18:31;4.00;;;1.33;;
15246;SDS011;7726;48.820;9.248;2022-10-15T06:21:00;2.10;;;1.00;;
15246;SDS011;7726;48.820;9.248;2022-10-15T06:23:27;4.85;;;1.05;;
15246;SDS011;7726;48.820;9.248;2022-10-15T06:25:54;0.80;;;0.80;;
15246;SDS011;7726;48.820;9.248;2022-10-15T06:28:21;3.47;;;1.15;;
15246;SDS011;7726;48.820;9.248;2022-10-15T06:30:48;1.55;;;1.20;;
15246;SDS011;7726;48.820;9.248;2022-10-15T06:33:15;2.47;;;1.15;;
15246;SDS011;7726;48.820;9.248;2022-10-15T06:35:43;2.58;;;1.00;;
15246;SDS011;7726;48.820;9.248;2022-10-15T06:38:11;1.80;;;1.00;;
15246;SDS011;7726;48.820;9.248;2022-10-15T06:40:38;0.77;;;0.70;;
15246;SDS011;7726;48.820;9.248;2022-10-15T06:43:05;1.00;;;0.68;;
15246;SDS011;7726;48.820;9.248;2022-10-15T06:45:33;0.93;;;0.88;;
15246;SDS011;7726;48.820;9.248;2022-10-15T06:48:01;1.83;;;0.63;;
15246;SDS011;7726;48.820;9.248;2022-10-15T06:50:29;1.88;;;0.80;;
15246;SDS011;7726;48.820;9.248;2022-10-15T06:52:56;3.22;;;0.90;;
15246;SDS011;7726;48.820;9.248;2022-10-15T06:55:25;0.75;;;0.75;;
15246;SDS011;7726;48.820;9.248;2022-10-15T06:57:53;4.93;;;1.10;;
15246;SDS011;7726;48.820;9.248;2022-10-15T07:00:20;1.50;;;0.80;;
15246;SDS011;7726;48.820;9.248;2022-10-15T07:02:48;1.80;;;1.08;;
15246;SDS011;7726;48.820;9.248;2022-10-15T07:05:15;2.67;;;0.98;;
15246;SDS011;7726;48.820;9.248;2022-10-15T07:07:42;1.58;;;1.13;;
15246;SDS011;7726;48.820;9.248;2022-10-15T07:10:16;1.23;;;0.90;;
15246;SDS011;7726;48.820;9.248;2022-10-15T07:12:45;1.75;;;0.73;;
15246;SDS011;7726;48.820;9.248;2022-10-15T07:15:12;1.70;;;0.80;;
15246;SDS011;7726;48.820;9.248;2022-10-15T07:17:44;1.85;;;0.90;;
15246;SDS011;7726;48.820;9.248;2022-10-15T07:20:11;2.03;;;0.90;;
15246;SDS011;7726;48.820;9.248;2022-10-15T07:22:38;1.58;;;1.30;;
15246;SDS011;7726;48.820;9.248;2022-10-15T07:25:06;1.98;;;1.38;;
15246;SDS011;7726;48.820;9.248;2022-10-15T07:27:33;1.52;;;1.20;;
15246;SDS011;7726;48.820;9.248;2022-10-15T07:30:02;1.20;;;1.13;;
15246;SDS011;7726;48.820;9.248;2022-10-15T07:32:29;1.40;;;1.17;;
15246;SDS011;7726;48.820;9.248;2022-10-15T07:34:57;3.03;;;1.10;;
15246;SDS011;7726;48.820;9.248;2022-10-15T07:37:24;3.20;;;1.10;;
15246;SDS011;7726;48.820;9.248;2022-10-15T07:39:51;4.20;;;1.10;;
15246;SDS011;7726;48.820;9.248;2022-10-15T07:42:18;1.25;;;1.00;;
15246;SDS011;7726;48.820;9.248;2022-10-15T07:44:45;1.83;;;0.98;;
15246;SDS011;7726;48.820;9.248;2022-10-15T07:47:14;2.33;;;0.93;;
15246;SDS011;7726;48.820;9.248;2022-10-15T07:49:41;2.65;;;0.98;;
15246;SDS011;7726;48.820;9.248;2022-10-15T07:52:09;0.68;;;0.68;;
15246;SDS011;7726;48.820;9.248;2022-10-15T07:54:37;2.70;;;1.40;;
15246;SDS011;7726;48.820;9.248;2022-10-15T07:57:04;0.85;;;0.82;;
15246;SDS011;7726;48.820;9.248;2022-10-15T07:59:31;2.85;;;1.60;;
15246;SDS011;7726;48.820;9.248;2022-10-15T08:01:59;0.93;;;0.80;;
15246;SDS011;7726;48.820;9.248;2022-10-15T08:04:27;0.98;;;0.80;;
15246;SDS011;7726;48.820;9.248;2022-10-15T08:06:54;1.10;;;0.70;;
15246;SDS011;7726;48.820;9.248;2022-10-15T08:09:21;0.60;;;0.60;;
15246;SDS011;7726;48.820;9.248;2022-10-15T08:11:49;1.20;;;0.85;;
15246;SDS011;7726;48.820;9.248;2022-10-15T08:14:16;0.60;;;0.60;;
15246;SDS011;7726;48.820;9.248;2022-10-15T08:16:43;3.38;;;0.90;;
15246;SDS011;7726;48.820;9.248;2022-10-15T08:19:10;3.10;;;0.70;;
15246;SDS011;7726;48.820;9.248;2022-10-15T08:21:42;1.00;;;0.90;;
15246;SDS011;7726;48.820;9.248;2022-10-15T08:24:09;1.40;;;0.98;;
15246;SDS011;7726;48.820;9.248;2022-10-15T08:26:37;4.13;;;1.55;;
15246;SDS011;7726;48.820;9.248;2022-10-15T08:29:04;1.17;;;1.15;;
15246;SDS011;7726;48.820;9.248;2022-10-15T08:31:31;0.90;;;0.90;;
15246;SDS011;7726;48.820;9.248;2022-10-15T08:33:58;1.35;;;0.90;;
15246;SDS011;7726;48.820;9.248;2022-10-15T08:36:25;0.95;;;0.90;;
15246;SDS011;7726;48.820;9.248;2022-10-15T08:38:54;1.05;;;0.80;;
15246;SDS011;7726;48.820;9.248;2022-10-15T08:41:23;1.80;;;0.77;;
15246;SDS011;7726;48.820;9.248;2022-10-15T08:43:51;0.90;;;0.80;;
15246;SDS011;7726;48.820;9.248;2022-10-15T08:46:19;1.08;;;0.90;;
15246;SDS011;7726;48.820;9.248;2022-10-15T08:48:48;1.92;;;0.90;;
15246;SDS011;7726;48.820;9.248;2022-10-15T08:51:17;1.52;;;0.80;;
15246;SDS011;7726;48.820;9.248;2022-10-15T08:53:46;1.70;;;1.00;;
15246;SDS011;7726;48.820;9.248;2022-10-15T08:56:17;2.20;;;1.13;;
15246;SDS011;7726;48.820;9.248;2022-10-15T08:58:49;1.00;;;0.90;;
15246;SDS011;7726;48.820;9.248;2022-10-15T09:01:19;1.45;;;0.95;;
15246;SDS011;7726;48.820;9.248;2022-10-15T09:03:49;2.53;;;1.80;;
15246;SDS011;7726;48.820;9.248;2022-10-15T09:06:18;4.15;;;2.10;;
15246;SDS011;7726;48.820;9.248;2022-10-15T09:08:49;2.47;;;1.80;;
15246;SDS011;7726;48.820;9.248;2022-10-15T09:11:20;2.00;;;1.90;;
15246;SDS011;7726;48.820;9.248;2022-10-15T09:13:50;1.65;;;1.55;;
15246;SDS011;7726;48.820;9.248;2022-10-15T09:16:18;2.67;;;1.65;;
15246;SDS011;7726;48.820;9.248;2022-10-15T09:18:46;1.30;;;1.30;;
15246;SDS011;7726;48.820;9.248;2022-10-15T09:21:15;4.80;;;2.10;;
15246;SDS011;7726;48.820;9.248;2022-10-15T09:23:42;4.05;;;2.00;;
15246;SDS011;7726;48.820;9.248;2022-10-15T09:26:21;3.65;;;1.33;;
15246;SDS011;7726;48.820;9.248;2022-10-15T09:28:51;1.45;;;1.20;;
15246;SDS011;7726;48.820;9.248;2022-10-15T09:31:20;2.33;;;1.17;;
15246;SDS011;7726;48.820;9.248;2022-10-15T09:33:49;0.95;;;0.90;;
15246;SDS011;7726;48.820;9.248;2022-10-15T09:36:22;1.17;;;1.08;;
15246;SDS011;7726;48.820;9.248;2022-10-15T09:38:57;1.10;;;0.90;;
15246;SDS011;7726;48.820;9.248;2022-10-15T09:41:30;3.05;;;1.00;;
15246;SDS011;7726;48.820;9.248;2022-10-15T09:44:01;2.63;;;1.10;;
15246;SDS011;7726;48.820;9.248;2022-10-15T09:46:29;1.20;;;1.10;;
15246;SDS011;7726;48.820;9.248;2022-10-15T09:48:59;2.78;;;1.60;;
15246;SDS011;7726;48.820;9.248;2022-10-15T09:51:28;1.15;;;1.02;;
15246;SDS011;7726;48.820;9.248;2022-10-15T09:54:01;2.00;;;1.45;;
15246;SDS011;7726;48.820;9.248;2022-10-15T09:56:32;1.58;;;1.10;;
15246;SDS011;7726;48.820;9.248;2022-10-15T09:59:00;0.63;;;0.60;;
15246;SDS011;7726;48.820;9.248;2022-10-15T10:01:28;2.90;;;0.93;;
15246;SDS011;7726;48.820;9.248;2022-10-15T10:04:08;0.90;;;0.90;;
15246;SDS011;7726;48.820;9.248;2022-10-15T10:06:41;3.08;;;1.10;;
15246;SDS011;7726;48.820;9.248;2022-10-15T10:09:11;0.85;;;0.85;;
15246;SDS011;7726;48.820;9.248;2022-10-15T10:11:46;1.83;;;0.88;;
15246;SDS011;7726;48.820;9.248;2022-10-15T10:14:20;1.58;;;0.90;;
15246;SDS011;7726;48.820;9.248;2022-10-15T10:17:02;0.90;;;0.90;;
15246;SDS011;7726;48.820;9.248;2022-10-15T10:19:30;1.05;;;0.95;;
15246;SDS011;7726;48.820;9.248;2022-10-15T10:22:05;0.60;;;0.60;;
15246;SDS011;7726;48.820;9.248;2022-10-15T10:24:32;1.80;;;0.73;;
15246;SDS011;7726;48.820;9.248;2022-10-15T10:27:00;1.02;;;0.43;;
15246;SDS011;7726;48.820;9.248;2022-10-15T10:29:29;1.70;;;0.70;;
15246;SDS011;7726;48.820;9.248;2022-10-15T10:32:07;0.88;;;0.50;;
15246;SDS011;7726;48.820;9.248;2022-10-15T10:34:35;1.65;;;0.60;;
15246;SDS011;7726;48.820;9.248;2022-10-15T10:37:02;2.35;;;0.43;;
15246;SDS011;7726;48.820;9.248;2022-10-15T10:39:31;0.55;;;0.55;;
15246;SDS011;7726;48.820;9.248;2022-10-15T10:42:03;0.80;;;0.55;;
15246;SDS011;7726;48.820;9.248;2022-10-15T10:44:31;1.77;;;0.50;;
15246;SDS011;7726;48.820;9.248;2022-10-15T10:47:03;2.70;;;0.60;;
15246;SDS011;7726;48.820;9.248;2022-10-15T10:49:34;0.35;;;0.30;;
15246;SDS011;7726;48.820;9.248;2022-10-15T10:52:02;0.90;;;0.40;;
15246;SDS011;7726;48.820;9.248;2022-10-15T10:54:30;0.73;;;0.47;;
15246;SDS011;7726;48.820;9.248;2022-10-15T10:56:58;0.82;;;0.50;;
15246;SDS011;7726;48.820;9.248;2022-10-15T10:59:29;2.05;;;0.80;;
15246;SDS011;7726;48.820;9.248;2022-10-15T11:01:56;1.08;;;0.52;;
15246;SDS011;7726;48.820;9.248;2022-10-15T11:04:24;0.50;;;0.50;;
15246;SDS011;7726;48.820;9.248;2022-10-15T11:06:55;1.40;;;0.68;;
15246;SDS011;7726;48.820;9.248;2022-10-15T11:09:31;0.93;;;0.60;;
15246;SDS011;7726;48.820;9.248;2022-10-15T11:12:06;0.60;;;0.60;;
15246;SDS011;7726;48.820;9.248;2022-10-15T11:14:39;1.63;;;0.50;;
15246;SDS011;7726;48.820;9.248;2022-10-15T11:17:13;1.63;;;0.52;;
15246;SDS011;7726;48.820;9.248;2022-10-15T11:19:44;1.55;;;0.60;;
15246;SDS011;7726;48.820;9.248;2022-10-15T11:22:20;3.85;;;0.75;;
15246;SDS011;7726;48.820;9.248;2022-10-15T11:24:53;0.75;;;0.63;;
15246;SDS011;7726;48.820;9.248;2022-10-15T11:27:32;3.30;;;0.95;;
15246;SDS011;7726;48.820;9.248;2022-10-15T11:30:03;0.43;;;0.43;;
15246;SDS011;7726;48.820;9.248;2022-10-15T11:32:37;2.15;;;0.70;;
15246;SDS011;7726;48.820;9.248;2022-10-15T11:35:20;1.92;;;0.60;;
15246;SDS011;7726;48.820;9.248;2022-10-15T11:37:55;0.50;;;0.50;;
15246;SDS011;7726;48.820;9.248;2022-10-15T11:40:29;1.02;;;0.60;;
15246;SDS011;7726;48.820;9.248;2022-10-15T11:43:00;0.88;;;0.70;;
15246;SDS011;7726;48.820;9.248;2022-10-15T11:45:50;1.23;;;0.70;;
15246;SDS011;7726;48.820;9.248;2022-10-15T11:48:21;0.80;;;0.80;;
15246;SDS011;7726;48.820;9.248;2022-10-15T11:50:52;1.80;;;0.70;;
15246;SDS011;7726;48.820;9.248;2022-10-15T11:53:25;1.25;;;0.82;;
15246;SDS011;7726;48.820;9.248;2022-10-15T11:55:56;2.03;;;1.23;;
15246;SDS011;7726;48.820;9.248;2022-10-15T11:58:29;1.35;;;1.00;;
15246;SDS011;7726;48.820;9.248;2022-10-15T12:00:59;1.90;;;1.02;;
15246;SDS011;7726;48.820;9.248;2022-10-15T12:03:29;1.17;;;1.00;;
15246;SDS011;7726;48.820;9.248;2022-10-15T12:05:57;1.50;;;0.90;;
15246;SDS011;7726;48.820;9.248;2022-10-15T12:08:27;0.95;;;0.90;;
15246;SDS011;7726;48.820;9.248;2022-10-15T12:10:59;0.50;;;0.50;;
15246;SDS011;7726;48.820;9.248;2022-10-15T12:13:30;1.02;;;0.70;;
15246;SDS011;7726;48.820;9.248;2022-10-15T12:16:05;0.50;;;0.50;;
15246;SDS011;7726;48.820;9.248;2022-10-15T12:18:34;1.08;;;0.70;;
15246;SDS011;7726;48.820;9.248;2022-10-15T12:21:31;2.92;;;0.47;;
15246;SDS011;7726;48.820;9.248;2022-10-15T12:23:51;0.90;;;0.90;;
15246;SDS011;7726;48.820;9.248;2022-10-15T12:26:25;3.50;;;0.57;;
15246;SDS011;7726;48.820;9.248;2022-10-15T12:28:53;0.45;;;0.45;;
15246;SDS011;7726;48.820;9.248;2022-10-15T12:31:21;0.50;;;0.50;;
15246;SDS011;7726;48.820;9.248;2022-10-15T12:33:49;1.13;;;0.68;;
15246;SDS011;7726;48.820;9.248;2022-10-15T12:36:20;1.38;;;0.90;;
15246;SDS011;7726;48.820;9.248;2022-10-15T12:38:55;1.50;;;0.80;;
15246;SDS011;7726;48.820;9.248;2022-10-15T12:41:32;1.95;;;0.65;;
15246;SDS011;7726;48.820;9.248;2022-10-15T12:44:04;1.77;;;0.73;;
15246;SDS011;7726;48.820;9.248;2022-10-15T12:46:34;0.82;;;0.73;;
15246;SDS011;7726;48.820;9.248;2022-10-15T12:49:08;0.57;;;0.55;;
15246;SDS011;7726;48.820;9.248;2022-10-15T12:51:57;0.68;;;0.68;;
15246;SDS011;7726;48.820;9.248;2022-10-15T12:54:31;0.40;;;0.40;;
15246;SDS011;7726;48.820;9.248;2022-10-15T12:57:00;0.60;;;0.60;;
15246;SDS011;7726;48.820;9.248;2022-10-15T12:59:29;0.80;;;0.80;;
15246;SDS011;7726;48.820;9.248;2022-10-15T13:01:56;0.65;;;0.50;;
15246;SDS011;7726;48.820;9.248;2022-10-15T13:04:28;1.80;;;0.80;;
15246;SDS011;7726;48.820;9.248;2022-10-15T13:07:03;1.25;;;0.80;;
15246;SDS011;7726;48.820;9.248;2022-10-15T13:09:30;0.70;;;0.70;;
15246;SDS011;7726;48.820;9.248;2022-10-15T13:11:58;0.75;;;0.75;;
15246;SDS011;7726;48.820;9.248;2022-10-15T13:14:30;0.73;;;0.70;;
15246;SDS011;7726;48.820;9.248;2022-10-15T13:17:01;2.47;;;0.80;;
15246;SDS011;7726;48.820;9.248;2022-10-15T13:19:29;2.53;;;0.80;;
15246;SDS011;7726;48.820;9.248;2022-10-15T13:21:57;1.23;;;0.50;;
15246;SDS011;7726;48.820;9.248;2022-10-15T13:24:26;0.85;;;0.80;;
15246;SDS011;7726;48.820;9.248;2022-10-15T13:26:54;0.85;;;0.80;;
15246;SDS011;7726;48.820;9.248;2022-10-15T13:29:23;2.13;;;1.10;;
15246;SDS011;7726;48.820;9.248;2022-10-15T13:31:50;1.10;;;0.77;;
15246;SDS011;7726;48.820;9.248;2022-10-15T13:34:23;0.75;;;0.75;;
15246;SDS011;7726;48.820;9.248;2022-10-15T13:36:51;1.38;;;0.70;;
15246;SDS011;7726;48.820;9.248;2022-10-15T13:39:21;1.17;;;0.63;;
15246;SDS011;7726;48.820;9.248;2022-10-15T13:41:51;0.70;;;0.70;;
15246;SDS011;7726;48.820;9.248;2022-10-15T13:44:20;2.33;;;0.85;;
15246;SDS011;7726;48.820;9.248;2022-10-15T13:46:47;1.60;;;0.80;;
15246;SDS011;7726;48.820;9.248;2022-10-15T13:49:14;2.15;;;1.45;;
15246;SDS011;7726;48.820;9.248;2022-10-15T13:51:44;0.85;;;0.85;;
15246;SDS011;7726;48.820;9.248;2022-10-15T13:54:13;1.17;;;1.00;;
15246;SDS011;7726;48.820;9.248;2022-10-15T13:56:42;1.23;;;0.93;;
15246;SDS011;7726;48.820;9.248;2022-10-15T13:59:15;1.55;;;1.08;;
15246;SDS011;7726;48.820;9.248;2022-10-15T14:01:47;2.28;;;1.10;;
15246;SDS011;7726;48.820;9.248;2022-10-15T14:04:15;0.80;;;0.77;;
15246;SDS011;7726;48.820;9.248;2022-10-15T14:06:47;5.55;;;1.10;;
15246;SDS011;7726;48.820;9.248;2022-10-15T14:09:18;1.70;;;1.00;;
15246;SDS011;7726;48.820;9.248;2022-10-15T14:11:48;1.55;;;0.90;;
15246;SDS011;7726;48.820;9.248;2022-10-15T14:14:29;0.98;;;0.88;;
15246;SDS011;7726;48.820;9.248;2022-10-15T14:16:57;1.90;;;1.00;;
15246;SDS011;7726;48.820;9.248;2022-10-15T14:19:24;2.10;;;1.38;;
15246;SDS011;7726;48.820;9.248;2022-10-15T14:21:54;1.67;;;1.42;;
15246;SDS011;7726;48.820;9.248;2022-10-15T14:24:22;1.40;;;0.82;;
15246;SDS011;7726;48.820;9.248;2022-10-15T14:26:50;1.27;;;1.00;;
15246;SDS011;7726;48.820;9.248;2022-10-15T14:29:18;1.83;;;1.00;;
15246;SDS011;7726;48.820;9.248;2022-10-15T14:31:49;1.52;;;0.90;;
15246;SDS011;7726;48.820;9.248;2022-10-15T14:34:26;1.45;;;0.90;;
15246;SDS011;7726;48.820;9.248;2022-10-15T14:36:54;1.50;;;1.10;;
15246;SDS011;7726;48.820;9.248;2022-10-15T14:39:25;2.03;;;1.00;;
15246;SDS011;7726;48.820;9.248;2022-10-15T14:41:59;1.83;;;1.17;;
15246;SDS011;7726;48.820;9.248;2022-10-15T14:44:39;1.45;;;1.00;;
15246;SDS011;7726;48.820;9.248;2022-10-15T14:47:13;2.60;;;1.10;;
15246;SDS011;7726;48.820;9.248;2022-10-15T14:49:41;2.28;;;0.95;;
15246;SDS011;7726;48.820;9.248;2022-10-15T14:52:10;3.10;;;0.95;;
15246;SDS011;7726;48.820;9.248;2022-10-15T14:54:40;1.75;;;0.90;;
15246;SDS011;7726;48.820;9.248;2022-10-15T14:57:13;1.42;;;1.02;;
15246;SDS011;7726;48.820;9.248;2022-10-15T14:59:42;1.35;;;0.85;;
15246;SDS011;7726;48.820;9.248;2022-10-15T15:02:12;1.20;;;0.90;;
15246;SDS011;7726;48.820;9.248;2022-10-15T15:04:41;1.88;;;1.10;;
15246;SDS011;7726;48.820;9.248;2022-10-15T15:07:09;2.00;;;1.10;;
15246;SDS011;7726;48.820;9.248;2022-10-15T15:09:38;1.30;;;1.20;;
15246;SDS011;7726;48.820;9.248;2022-10-15T15:12:07;2.85;;;1.27;;
15246;SDS011;7726;48.820;9.248;2022-10-15T15:14:36;1.88;;;1.10;;
15246;SDS011;7726;48.820;9.248;2022-10-15T15:17:03;2.47;;;1.20;;
15246;SDS011;7726;48.820;9.248;2022-10-15T15:19:32;2.42;;;1.45;;